Time;durP1;ratioP1;P1;durP2;ratioP2;P2;SDS_P1;SDS_P2;PMS_P1;PMS_P2;Temp;Humidity;BMP_temperature;BMP_pressure;BME280_temperature;BME280_humidity;BME280_pressure;Samples;Min_cycle;Max_cycle;Signal;HPM_P1;HPM_P2
2024/04/16 00:01:38;;;;;;;1.30;0.70;;;5.70;83.80;;;;;;5396930;26;20258;-71
2024/04/16 00:04:04;;;;;;;1.73;0.70;;;5.70;84.10;;;;;;5409722;26;20486;-69
2024/04/16 00:06:31;;;;;;;1.43;0.83;;;5.70;84.10;;;;;;5421236;26;20737;-72
2024/04/16 00:08:56;;;;;;;1.40;0.80;;;5.70;84.00;;;;;;5404112;26;20743;-70
2024/04/16 00:11:22;;;;;;;1.90;0.90;;;5.70;83.80;;;;;;5403159;26;20518;-71
2024/04/16 00:13:47;;;;;;;1.07;0.67;;;5.80;83.70;;;;;;5409780;26;20265;-72
2024/04/16 00:16:13;;;;;;;1.47;0.73;;;5.70;83.60;;;;;;5406337;26;20268;-72
2024/04/16 00:18:39;;;;;;;2.20;0.80;;;5.80;83.30;;;;;;5403645;26;20785;-70
2024/04/16 00:21:05;;;;;;;1.43;0.70;;;5.80;83.10;;;;;;5404493;26;20234;-72
2024/04/16 00:23:30;;;;;;;1.40;0.80;;;5.80;82.80;;;;;;5410974;26;20343;-71
2024/04/16 00:25:56;;;;;;;1.37;0.80;;;5.90;83.10;;;;;;5372209;26;20269;-71
2024/04/16 00:28:22;;;;;;;1.43;0.80;;;5.90;82.80;;;;;;5409024;26;20463;-71
2024/04/16 00:30:48;;;;;;;3.23;0.93;;;5.80;82.80;;;;;;5407737;26;20475;-73
2024/04/16 00:33:13;;;;;;;1.57;0.90;;;5.80;83.30;;;;;;5404215;26;20277;-71
2024/04/16 00:35:42;;;;;;;2.73;1.10;;;5.70;84.10;;;;;;5399938;26;20310;-72
2024/04/16 00:38:09;;;;;;;5.23;0.90;;;5.70;84.60;;;;;;5404206;26;20313;-73
2024/04/16 00:40:34;;;;;;;1.93;0.90;;;5.60;85.00;;;;;;5413167;26;20579;-73
2024/04/16 00:43:00;;;;;;;2.43;0.80;;;5.60;84.90;;;;;;5410857;26;20471;-71
2024/04/16 00:45:26;;;;;;;1.60;0.90;;;5.60;84.70;;;;;;5383979;26;20277;-73
2024/04/16 00:47:53;;;;;;;1.20;0.73;;;5.60;84.60;;;;;;5405910;26;20334;-71
2024/04/16 00:50:19;;;;;;;2.10;1.10;;;5.60;84.60;;;;;;5409749;26;20847;-74
2024/04/16 00:52:45;;;;;;;4.77;1.10;;;5.50;84.10;;;;;;5378588;26;20626;-72
2024/04/16 00:55:11;;;;;;;1.93;0.90;;;5.60;84.10;;;;;;5416454;26;20237;-71
2024/04/16 00:57:39;;;;;;;3.10;1.00;;;5.60;84.10;;;;;;5412938;26;20467;-71
2024/04/16 01:00:05;;;;;;;3.67;0.80;;;5.60;83.80;;;;;;5395680;26;21049;-72
2024/04/16 01:02:31;;;;;;;2.80;0.90;;;5.60;83.80;;;;;;5397923;26;20469;-72
2024/04/16 01:04:56;;;;;;;1.57;1.00;;;5.60;83.60;;;;;;5406429;26;20648;-71
2024/04/16 01:07:24;;;;;;;2.17;1.00;;;5.70;83.60;;;;;;5407748;26;20280;-70
2024/04/16 01:09:49;;;;;;;2.77;1.20;;;5.70;83.10;;;;;;5405210;26;20461;-71
2024/04/16 01:12:15;;;;;;;3.20;2.00;;;5.60;83.30;;;;;;5399701;26;20489;-71
2024/04/16 01:14:41;;;;;;;4.03;1.03;;;5.60;83.40;;;;;;5414315;26;20284;-71
2024/04/16 01:17:07;;;;;;;2.77;1.17;;;5.60;83.40;;;;;;5400920;26;20238;-74
2024/04/16 01:19:33;;;;;;;0.90;0.60;;;5.70;83.60;;;;;;5411256;26;20242;-71
2024/04/16 01:21:59;;;;;;;1.63;1.33;;;5.70;83.10;;;;;;5408355;26;21124;-70
2024/04/16 01:24:25;;;;;;;1.47;1.00;;;5.70;83.00;;;;;;5406930;26;20479;-73
2024/04/16 01:26:50;;;;;;;3.13;1.03;;;5.60;83.00;;;;;;5405298;26;20242;-70
2024/04/16 01:29:16;;;;;;;3.77;1.17;;;5.70;83.10;;;;;;5406590;26;20551;-72
2024/04/16 01:31:41;;;;;;;3.00;1.70;;;5.80;83.00;;;;;;5416369;26;20292;-71
2024/04/16 01:34:07;;;;;;;2.77;1.17;;;5.80;82.70;;;;;;5407448;26;20249;-71
2024/04/16 01:36:32;;;;;;;3.00;1.13;;;5.80;82.80;;;;;;5410215;26;20332;-72
2024/04/16 01:38:58;;;;;;;4.30;1.40;;;5.80;82.80;;;;;;5405697;26;20241;-71
2024/04/16 01:41:24;;;;;;;5.33;1.53;;;5.80;82.70;;;;;;5414104;26;20311;-72
2024/04/16 01:43:49;;;;;;;5.57;2.13;;;5.80;82.50;;;;;;5417500;26;20514;-72
2024/04/16 01:46:15;;;;;;;4.50;1.20;;;5.80;82.70;;;;;;5416525;26;20581;-74
2024/04/16 01:48:41;;;;;;;4.13;1.37;;;5.70;82.50;;;;;;5407959;26;20320;-72
2024/04/16 01:51:06;;;;;;;4.70;1.50;;;5.70;82.50;;;;;;5408456;26;20627;-73
2024/04/16 01:53:32;;;;;;;5.47;1.40;;;5.70;81.10;;;;;;5403750;26;20293;-75
2024/04/16 01:56:01;;;;;;;8.13;1.53;;;5.70;80.50;;;;;;5414229;26;20655;-73
2024/04/16 01:58:27;;;;;;;3.73;1.00;;;5.80;81.20;;;;;;5409296;26;20463;-73
2024/04/16 02:00:59;;;;;;;3.40;1.43;;;5.70;81.70;;;;;;5405616;26;20546;-71
2024/04/16 02:03:25;;;;;;;2.80;1.13;;;5.70;82.10;;;;;;5410518;26;20238;-71
2024/04/16 02:05:51;;;;;;;1.67;1.13;;;5.60;82.20;;;;;;5406142;26;20512;-73
2024/04/16 02:08:16;;;;;;;3.20;0.93;;;5.70;82.50;;;;;;5407798;26;20647;-71
2024/04/16 02:10:54;;;;;;;5.27;1.83;;;5.70;82.50;;;;;;5411481;26;20273;-72
2024/04/16 02:13:20;;;;;;;2.93;0.93;;;5.60;82.50;;;;;;5410627;26;20245;-70
2024/04/16 02:15:46;;;;;;;2.83;1.50;;;5.60;82.70;;;;;;5417956;26;21186;-72
2024/04/16 02:18:11;;;;;;;4.77;0.90;;;5.60;82.80;;;;;;5411369;26;20522;-72
2024/04/16 02:20:37;;;;;;;4.90;1.10;;;5.50;83.30;;;;;;5409926;26;20749;-73
2024/04/16 02:23:02;;;;;;;3.80;1.37;;;5.50;83.60;;;;;;5408136;26;20362;-73
2024/04/16 02:25:28;;;;;;;4.20;1.60;;;5.50;83.60;;;;;;5415015;26;20242;-73
2024/04/16 02:27:54;;;;;;;5.10;1.17;;;5.50;83.40;;;;;;5414032;26;20929;-73
2024/04/16 02:30:19;;;;;;;4.63;2.40;;;5.60;83.00;;;;;;5411836;26;20238;-70
2024/04/16 02:32:46;;;;;;;2.80;1.50;;;5.60;82.80;;;;;;5410230;26;20265;-72
2024/04/16 02:35:11;;;;;;;2.80;1.30;;;5.60;82.80;;;;;;5416067;26;20233;-72
2024/04/16 02:37:37;;;;;;;4.57;1.40;;;5.60;82.50;;;;;;5415463;26;20592;-72
2024/04/16 02:40:03;;;;;;;3.73;1.30;;;5.60;82.20;;;;;;5414741;26;21024;-74
2024/04/16 02:42:28;;;;;;;9.20;1.50;;;5.70;82.20;;;;;;5408930;26;20523;-74
2024/04/16 02:44:54;;;;;;;3.07;1.27;;;5.70;81.70;;;;;;5412281;26;20283;-71
2024/04/16 02:47:21;;;;;;;4.70;1.70;;;5.70;82.50;;;;;;5387849;26;20241;-72
2024/04/16 02:49:47;;;;;;;11.00;1.30;;;5.70;82.70;;;;;;5399479;26;20517;-73
2024/04/16 02:52:12;;;;;;;3.67;1.40;;;5.70;82.50;;;;;;5410044;26;20596;-75
2024/04/16 02:54:38;;;;;;;2.90;1.13;;;5.70;83.00;;;;;;5408035;26;20634;-70
2024/04/16 02:57:04;;;;;;;4.60;1.30;;;5.60;83.40;;;;;;5391717;26;20378;-72
2024/04/16 02:59:29;;;;;;;5.13;1.60;;;5.50;84.30;;;;;;5408720;26;20623;-72
2024/04/16 03:01:55;;;;;;;3.63;1.70;;;5.30;84.90;;;;;;5398476;26;20284;-74
2024/04/16 03:04:20;;;;;;;3.97;1.50;;;5.20;86.20;;;;;;5401675;26;20250;-72
2024/04/16 03:06:46;;;;;;;5.07;1.63;;;5.20;86.80;;;;;;5410654;26;20277;-71
2024/04/16 03:09:12;;;;;;;3.10;1.70;;;5.10;87.10;;;;;;5405839;26;20590;-71
2024/04/16 03:11:37;;;;;;;1.77;1.20;;;4.90;86.60;;;;;;5405495;26;20295;-70
2024/04/16 03:14:03;;;;;;;4.03;1.70;;;4.90;87.10;;;;;;5414736;26;20225;-69
2024/04/16 03:16:28;;;;;;;3.47;1.60;;;4.80;87.60;;;;;;5425812;26;20335;-71
2024/04/16 03:18:54;;;;;;;4.10;1.57;;;4.60;87.70;;;;;;5414392;26;20264;-70
2024/04/16 03:21:19;;;;;;;1.80;1.17;;;4.50;88.00;;;;;;5414804;26;20319;-70
2024/04/16 03:23:45;;;;;;;3.23;1.57;;;4.50;88.40;;;;;;5410045;26;20236;-72
2024/04/16 03:26:11;;;;;;;2.57;1.30;;;4.50;88.30;;;;;;5410216;26;20233;-71
2024/04/16 03:28:36;;;;;;;8.27;1.50;;;4.50;88.30;;;;;;5411875;26;20346;-72
2024/04/16 03:31:02;;;;;;;6.63;1.77;;;4.50;88.10;;;;;;5410219;26;20847;-70
2024/04/16 03:33:27;;;;;;;9.90;2.00;;;4.60;88.40;;;;;;5402689;26;20246;-71
2024/04/16 03:35:56;;;;;;;1.63;1.20;;;4.60;88.40;;;;;;5414557;26;20280;-71
2024/04/16 03:38:22;;;;;;;3.80;1.43;;;4.70;88.40;;;;;;5412438;26;20329;-72
2024/04/16 03:41:00;;;;;;;3.13;1.30;;;4.80;87.80;;;;;;5405062;26;20531;-72
2024/04/16 03:43:27;;;;;;;6.90;1.83;;;4.80;87.60;;;;;;5402184;26;20459;-74
2024/04/16 03:45:53;;;;;;;3.40;1.70;;;4.80;87.60;;;;;;5407472;26;20583;-71
2024/04/16 03:48:20;;;;;;;3.57;1.50;;;4.80;87.10;;;;;;5396755;26;20528;-73
2024/04/16 03:50:46;;;;;;;4.17;1.70;;;4.90;87.10;;;;;;5407427;26;20467;-73
2024/04/16 03:53:11;;;;;;;4.60;1.80;;;4.90;86.90;;;;;;5411823;26;20524;-72
2024/04/16 03:55:37;;;;;;;6.63;1.97;;;4.90;86.60;;;;;;5410650;26;20539;-71
2024/04/16 03:58:02;;;;;;;2.53;1.40;;;4.90;86.80;;;;;;5402730;26;20365;-72
2024/04/16 04:03:17;;;;;;;2.90;1.50;;;4.90;86.80;;;;;;5416670;26;20317;-73
2024/04/16 04:05:43;;;;;;;3.30;1.60;;;4.90;86.80;;;;;;5416441;26;20922;-73
2024/04/16 04:08:09;;;;;;;4.37;1.70;;;4.90;86.60;;;;;;5422214;26;21437;-70
2024/04/16 04:10:35;;;;;;;6.33;1.80;;;4.90;86.80;;;;;;5419333;26;20475;-72
2024/04/16 04:13:00;;;;;;;5.80;1.93;;;5.00;86.80;;;;;;5416583;26;20287;-75
2024/04/16 04:15:26;;;;;;;6.63;1.70;;;4.90;86.60;;;;;;5411533;26;20577;-71
2024/04/16 04:17:52;;;;;;;5.50;1.50;;;5.00;86.50;;;;;;5416704;26;20536;-73
2024/04/16 04:20:17;;;;;;;4.07;1.83;;;5.10;86.20;;;;;;5411211;26;20790;-74
2024/04/16 04:22:43;;;;;;;3.93;1.50;;;5.20;86.00;;;;;;5417737;26;20246;-72
2024/04/16 04:25:08;;;;;;;5.40;1.73;;;5.20;85.60;;;;;;5419549;26;20265;-73
2024/04/16 04:27:35;;;;;;;3.90;1.80;;;5.20;85.00;;;;;;5412149;26;20343;-74
2024/04/16 04:30:00;;;;;;;7.10;1.60;;;5.20;85.00;;;;;;5384721;26;20726;-75
2024/04/16 04:32:26;;;;;;;4.10;2.00;;;5.20;85.20;;;;;;5414379;26;20578;-72
2024/04/16 04:34:52;;;;;;;7.20;1.90;;;5.20;85.30;;;;;;5421468;26;20272;-73
2024/04/16 04:37:18;;;;;;;2.93;1.60;;;5.20;85.30;;;;;;5419342;26;20237;-72
2024/04/16 04:39:44;;;;;;;4.03;1.70;;;5.10;85.50;;;;;;5424035;26;20463;-73
2024/04/16 04:42:09;;;;;;;3.57;1.50;;;5.10;85.60;;;;;;5412919;26;20346;-73
2024/04/16 04:44:35;;;;;;;3.80;1.63;;;5.00;85.70;;;;;;5412638;26;20275;-73
2024/04/16 04:47:01;;;;;;;3.13;1.87;;;5.10;85.70;;;;;;5414560;26;20237;-74
2024/04/16 04:49:27;;;;;;;4.60;1.70;;;5.10;85.30;;;;;;5413638;26;20293;-72
2024/04/16 04:51:52;;;;;;;7.33;1.90;;;5.00;85.20;;;;;;5412158;26;20471;-73
2024/04/16 04:54:18;;;;;;;4.63;1.60;;;5.00;85.00;;;;;;5411330;26;20238;-74
2024/04/16 04:56:44;;;;;;;8.00;2.00;;;5.00;85.00;;;;;;5408734;26;20268;-72
2024/04/16 04:59:10;;;;;;;2.73;1.93;;;5.00;85.00;;;;;;5411349;26;20241;-73
2024/04/16 05:01:37;;;;;;;3.43;2.03;;;4.90;85.00;;;;;;5411848;26;20809;-73
2024/04/16 05:04:02;;;;;;;4.83;2.10;;;5.00;85.00;;;;;;5417164;26;20306;-72
2024/04/16 05:06:28;;;;;;;7.73;1.90;;;5.10;84.90;;;;;;5420075;26;20460;-74
2024/04/16 05:08:53;;;;;;;5.10;2.20;;;5.20;84.60;;;;;;5408826;26;20771;-71
2024/04/16 05:11:19;;;;;;;4.53;1.90;;;5.30;83.70;;;;;;5408970;26;22870;-73
2024/04/16 05:13:45;;;;;;;6.27;2.13;;;5.30;83.80;;;;;;5410440;26;20298;-75
2024/04/16 05:16:11;;;;;;;4.27;1.90;;;5.40;83.80;;;;;;5420437;26;20299;-73
2024/04/16 05:18:37;;;;;;;4.27;1.50;;;5.40;83.40;;;;;;5382116;26;20246;-71
2024/04/16 05:21:02;;;;;;;6.40;2.00;;;5.50;83.00;;;;;;5411017;26;20479;-72
2024/04/16 05:23:28;;;;;;;4.93;1.60;;;5.50;83.10;;;;;;5408092;26;20246;-71
2024/04/16 05:25:54;;;;;;;9.20;1.90;;;5.60;82.70;;;;;;5405892;26;20378;-71
2024/04/16 05:28:20;;;;;;;8.47;1.70;;;5.60;82.40;;;;;;5417690;26;20238;-73
2024/04/16 05:30:47;;;;;;;4.20;1.80;;;5.70;81.90;;;;;;5416700;26;20475;-74
2024/04/16 05:33:12;;;;;;;7.60;1.63;;;5.70;81.70;;;;;;5410490;26;20581;-73
2024/04/16 05:35:38;;;;;;;5.20;1.97;;;5.80;81.70;;;;;;5413748;26;20459;-76
2024/04/16 05:38:04;;;;;;;7.03;2.20;;;5.80;81.70;;;;;;5414180;26;20271;-73
2024/04/16 05:40:30;;;;;;;4.87;2.00;;;5.70;81.50;;;;;;5414936;26;20280;-74
2024/04/16 05:42:55;;;;;;;5.53;2.00;;;5.70;81.90;;;;;;5414744;26;20291;-74
2024/04/16 05:45:21;;;;;;;2.57;1.73;;;5.80;81.90;;;;;;5419645;26;20448;-73
2024/04/16 05:47:47;;;;;;;8.00;1.57;;;5.80;81.40;;;;;;5397118;26;20348;-73
2024/04/16 05:50:12;;;;;;;9.40;2.13;;;5.80;80.60;;;;;;5406005;26;20386;-72
2024/04/16 05:52:38;;;;;;;6.70;1.90;;;5.70;80.60;;;;;;5420465;26;20327;-74
2024/04/16 05:55:05;;;;;;;9.73;2.43;;;5.80;80.50;;;;;;5424107;26;20464;-72
2024/04/16 05:57:31;;;;;;;4.70;2.10;;;5.80;80.20;;;;;;5416782;26;20249;-73
2024/04/16 05:59:57;;;;;;;4.80;2.10;;;5.80;80.30;;;;;;5413113;26;20542;-75
2024/04/16 06:02:22;;;;;;;10.00;2.23;;;5.90;80.00;;;;;;5412777;26;20787;-72
2024/04/16 06:04:48;;;;;;;10.00;1.90;;;6.00;80.30;;;;;;5421891;26;20237;-73
2024/04/16 06:07:13;;;;;;;7.07;2.63;;;6.00;79.90;;;;;;5415770;26;20287;-72
2024/04/16 06:09:40;;;;;;;6.47;2.23;;;6.10;79.90;;;;;;5410539;26;20350;-74
2024/04/16 06:12:06;;;;;;;4.33;1.67;;;6.20;79.90;;;;;;5371431;26;20487;-73
2024/04/16 06:14:32;;;;;;;9.67;2.67;;;6.30;79.90;;;;;;5408276;26;20257;-71
2024/04/16 06:16:58;;;;;;;6.83;1.87;;;6.40;80.00;;;;;;5409809;26;20532;-74
2024/04/16 06:19:23;;;;;;;8.33;2.40;;;6.60;79.50;;;;;;5405545;26;20562;-74
2024/04/16 06:21:49;;;;;;;7.10;1.90;;;6.70;78.60;;;;;;5402770;26;20238;-74
2024/04/16 06:24:15;;;;;;;6.20;2.30;;;6.70;77.30;;;;;;5409403;26;20272;-72
2024/04/16 06:26:40;;;;;;;6.27;2.00;;;6.70;76.70;;;;;;5407668;26;20242;-72
2024/04/16 06:29:06;;;;;;;9.13;2.30;;;6.80;76.10;;;;;;5412566;26;20595;-73
2024/04/16 06:31:32;;;;;;;9.30;2.60;;;6.80;75.50;;;;;;5401238;26;20788;-73
2024/04/16 06:33:57;;;;;;;8.80;2.57;;;6.80;75.70;;;;;;5407518;26;20315;-73
2024/04/16 06:36:23;;;;;;;7.40;2.10;;;6.90;74.90;;;;;;5412736;26;20238;-74
2024/04/16 06:38:49;;;;;;;5.40;2.27;;;6.90;74.90;;;;;;5379140;26;20562;-72
2024/04/16 06:41:14;;;;;;;15.93;2.73;;;7.00;74.80;;;;;;5408693;26;20245;-72
2024/04/16 06:43:40;;;;;;;7.93;2.63;;;7.10;74.80;;;;;;5412250;26;20714;-73
2024/04/16 06:46:05;;;;;;;3.80;1.93;;;7.10;74.30;;;;;;5412027;26;20280;-74
2024/04/16 06:48:32;;;;;;;3.67;1.83;;;7.20;74.00;;;;;;5412885;26;20375;-74
2024/04/16 06:50:58;;;;;;;11.70;2.50;;;7.20;72.60;;;;;;5409726;26;20249;-73
2024/04/16 06:53:23;;;;;;;4.57;2.10;;;7.20;72.70;;;;;;5412325;26;21121;-74
2024/04/16 06:56:07;;;;;;;5.70;2.33;;;7.30;72.70;;;;;;5412386;26;20242;-73
2024/04/16 06:58:33;;;;;;;2.97;1.70;;;7.40;72.60;;;;;;5409559;26;20538;-73
2024/04/16 07:00:59;;;;;;;6.30;1.97;;;7.60;71.40;;;;;;5406728;26;20514;-72
2024/04/16 07:03:25;;;;;;;3.27;1.07;;;7.60;70.40;;;;;;5412557;26;20471;-74
2024/04/16 07:05:51;;;;;;;14.43;1.90;;;7.60;67.70;;;;;;5399638;26;20535;-74
2024/04/16 07:08:18;;;;;;;4.60;1.80;;;7.60;67.20;;;;;;5413259;26;20233;-74
2024/04/16 07:10:47;;;;;;;3.73;1.80;;;7.70;68.20;;;;;;5409400;26;20238;-73
2024/04/16 07:13:15;;;;;;;4.40;1.50;;;7.80;67.00;;;;;;5410726;26;20815;-73
2024/04/16 07:15:41;;;;;;;7.73;1.93;;;7.90;67.30;;;;;;5414329;26;20499;-74
2024/04/16 07:18:06;;;;;;;2.20;1.17;;;7.90;66.30;;;;;;5409018;26;20455;-73
2024/04/16 07:20:32;;;;;;;7.13;1.70;;;7.90;66.60;;;;;;5414030;26;20284;-72
2024/04/16 07:22:58;;;;;;;5.50;2.00;;;7.90;66.40;;;;;;5405746;26;20241;-73
2024/04/16 07:25:24;;;;;;;26.50;3.17;;;7.90;66.70;;;;;;5412118;26;20468;-74
2024/04/16 07:27:49;;;;;;;9.73;1.57;;;7.90;66.10;;;;;;5412077;26;20867;-71
2024/04/16 07:30:18;;;;;;;7.07;1.80;;;7.90;66.40;;;;;;5419276;26;20284;-74
2024/04/16 07:32:44;;;;;;;3.97;1.17;;;7.90;65.80;;;;;;5415768;26;20291;-73
2024/04/16 07:35:10;;;;;;;3.80;1.50;;;7.90;66.70;;;;;;5418893;26;20456;-73
2024/04/16 07:37:35;;;;;;;4.50;1.17;;;7.90;66.00;;;;;;5421251;26;20698;-72
2024/04/16 07:40:01;;;;;;;7.83;2.10;;;8.00;66.40;;;;;;5419822;26;20467;-73
2024/04/16 07:42:27;;;;;;;6.00;1.90;;;8.10;66.30;;;;;;5425266;26;20750;-73
2024/04/16 07:44:52;;;;;;;13.53;1.87;;;8.10;65.40;;;;;;5431678;26;20269;-72
2024/04/16 07:47:20;;;;;;;3.93;1.60;;;8.10;63.90;;;;;;5427251;26;20237;-71
2024/04/16 07:49:46;;;;;;;3.37;1.20;;;8.20;64.20;;;;;;5423276;26;20627;-73
2024/04/16 07:52:11;;;;;;;3.80;1.50;;;8.30;63.70;;;;;;5420219;26;20542;-73
2024/04/16 07:54:37;;;;;;;3.60;1.97;;;8.40;64.10;;;;;;5415905;26;20746;-73
2024/04/16 07:57:02;;;;;;;5.70;1.60;;;8.50;63.50;;;;;;5412568;26;20233;-74
2024/04/16 07:59:28;;;;;;;5.87;1.60;;;8.50;64.40;;;;;;5414335;26;20752;-73
2024/04/16 08:01:54;;;;;;;3.47;1.50;;;8.60;63.90;;;;;;5411777;26;20276;-74
2024/04/16 08:04:19;;;;;;;4.67;1.10;;;8.60;62.90;;;;;;5406740;26;20311;-72
2024/04/16 08:06:45;;;;;;;5.43;1.50;;;8.60;62.50;;;;;;5405054;26;20311;-74
2024/04/16 08:09:11;;;;;;;5.00;1.37;;;8.60;61.90;;;;;;5409730;26;20233;-74
2024/04/16 08:11:36;;;;;;;3.77;1.33;;;8.60;62.20;;;;;;5410490;26;20487;-73
2024/04/16 08:14:02;;;;;;;5.90;1.60;;;8.70;62.80;;;;;;5399001;26;20238;-74
2024/04/16 08:16:30;;;;;;;6.37;1.60;;;8.90;62.90;;;;;;5413893;26;20274;-73
2024/04/16 08:18:56;;;;;;;4.00;1.20;;;9.00;62.30;;;;;;5413651;26;20855;-73
2024/04/16 08:21:22;;;;;;;3.33;1.50;;;9.00;62.50;;;;;;5412295;26;20482;-73
2024/04/16 08:23:52;;;;;;;4.83;1.40;;;8.90;62.90;;;;;;5383531;26;20238;-73
2024/04/16 08:26:18;;;;;;;4.90;1.63;;;9.00;62.80;;;;;;5411970;26;21019;-72
2024/04/16 08:28:43;;;;;;;6.90;1.17;;;9.00;62.60;;;;;;5383026;26;20525;-72
2024/04/16 08:31:09;;;;;;;2.93;1.10;;;8.90;62.50;;;;;;5412373;26;20233;-73
2024/04/16 08:33:36;;;;;;;12.70;1.87;;;8.90;62.60;;;;;;5410990;26;20360;-75
2024/04/16 08:36:01;;;;;;;2.83;1.10;;;8.80;62.50;;;;;;5412034;26;20241;-73
2024/04/16 08:38:27;;;;;;;3.00;1.20;;;9.00;62.50;;;;;;5412049;26;20519;-72
2024/04/16 08:40:53;;;;;;;2.23;1.23;;;9.00;62.20;;;;;;5413755;26;20283;-72
2024/04/16 08:43:20;;;;;;;3.10;1.10;;;9.20;61.50;;;;;;5406045;26;20293;-75
2024/04/16 08:45:48;;;;;;;4.83;1.00;;;8.90;60.40;;;;;;5412814;26;20284;-72
2024/04/16 08:48:14;;;;;;;6.77;1.27;;;9.00;59.70;;;;;;5415016;26;20467;-72
2024/04/16 08:50:42;;;;;;;3.37;1.03;;;9.20;60.40;;;;;;5411155;26;20525;-73
2024/04/16 08:53:09;;;;;;;8.40;1.70;;;9.40;60.40;;;;;;5402772;26;20539;-73
2024/04/16 08:55:35;;;;;;;2.80;0.97;;;9.40;60.00;;;;;;5413763;26;21101;-73
2024/04/16 08:58:01;;;;;;;1.80;1.13;;;9.50;60.40;;;;;;5407982;26;20459;-73
2024/04/16 09:00:26;;;;;;;3.63;1.20;;;9.20;60.70;;;;;;5407002;26;20516;-73
2024/04/16 09:02:52;;;;;;;1.50;0.90;;;9.20;61.30;;;;;;5402429;26;20777;-72
2024/04/16 09:05:18;;;;;;;4.00;1.07;;;9.20;61.00;;;;;;5407127;26;20241;-72
2024/04/16 09:07:46;;;;;;;4.27;1.20;;;9.30;61.50;;;;;;5416085;26;20520;-72
2024/04/16 09:10:18;;;;;;;2.50;0.87;;;9.20;61.50;;;;;;5429804;26;20475;-73
2024/04/16 09:12:44;;;;;;;16.00;1.50;;;9.30;60.40;;;;;;5407259;26;20483;-72
2024/04/16 09:15:11;;;;;;;2.90;0.90;;;9.40;60.00;;;;;;5411966;26;20456;-73
2024/04/16 09:17:49;;;;;;;4.87;1.17;;;9.60;60.40;;;;;;5413548;26;20287;-73
2024/04/16 09:20:17;;;;;;;2.63;1.53;;;9.80;60.00;;;;;;5411922;26;20472;-72
2024/04/16 09:22:42;;;;;;;21.57;1.20;;;9.90;59.20;;;;;;5418650;26;20629;-72
2024/04/16 09:25:08;;;;;;;5.87;1.30;;;10.00;59.70;;;;;;5421929;26;21004;-74
2024/04/16 09:27:34;;;;;;;4.33;1.37;;;10.10;59.10;;;;;;5421947;26;20316;-74
2024/04/16 09:30:10;;;;;;;6.13;1.50;;;10.30;59.10;;;;;;5416141;26;20475;-73
2024/04/16 09:32:39;;;;;;;5.07;1.30;;;10.40;58.90;;;;;;5411421;26;20799;-74
2024/04/16 09:35:05;;;;;;;3.00;1.03;;;10.20;58.70;;;;;;5401136;26;20469;-73
2024/04/16 09:37:31;;;;;;;2.53;1.17;;;10.00;59.20;;;;;;5418408;26;20825;-74
2024/04/16 09:39:59;;;;;;;2.57;1.30;;;9.90;59.70;;;;;;5410592;26;20468;-74
2024/04/16 09:42:31;;;;;;;4.67;1.40;;;10.00;59.60;;;;;;5417296;26;20475;-74
2024/04/16 09:44:58;;;;;;;5.30;1.57;;;10.10;60.00;;;;;;5420013;26;20991;-72
2024/04/16 09:47:25;;;;;;;2.40;1.10;;;10.00;59.70;;;;;;5414348;26;20460;-73
2024/04/16 09:49:54;;;;;;;3.70;2.00;;;9.90;60.10;;;;;;5407741;26;20475;-71
2024/04/16 09:52:20;;;;;;;4.20;1.30;;;10.00;61.00;;;;;;5414421;26;21015;-72
2024/04/16 09:54:48;;;;;;;1.47;1.17;;;10.00;61.00;;;;;;5406420;26;20463;-73
2024/04/16 09:57:15;;;;;;;2.47;0.90;;;10.10;61.30;;;;;;5408076;26;20527;-72
2024/04/16 09:59:41;;;;;;;2.47;1.20;;;10.00;61.70;;;;;;5401391;26;20526;-74
2024/04/16 10:02:09;;;;;;;3.50;0.83;;;10.00;61.90;;;;;;5406096;26;20515;-73
2024/04/16 10:04:36;;;;;;;1.80;0.90;;;9.90;61.90;;;;;;5412319;26;20531;-74
2024/04/16 10:07:03;;;;;;;4.37;1.00;;;10.00;62.00;;;;;;5412103;26;20475;-72
2024/04/16 10:09:29;;;;;;;5.10;0.90;;;9.80;62.00;;;;;;5411275;26;20596;-71
2024/04/16 10:11:56;;;;;;;2.50;1.10;;;9.90;62.80;;;;;;5409525;26;20467;-74
2024/04/16 10:14:22;;;;;;;2.47;0.80;;;9.80;61.60;;;;;;5409192;26;20881;-71
2024/04/16 10:16:48;;;;;;;3.13;1.13;;;9.80;61.70;;;;;;5408586;26;21070;-74
2024/04/16 10:19:15;;;;;;;2.40;1.37;;;9.70;61.70;;;;;;5410481;26;20468;-72
2024/04/16 10:21:42;;;;;;;2.40;1.00;;;9.70;62.60;;;;;;5403344;26;20245;-74
2024/04/16 10:24:10;;;;;;;2.90;1.00;;;9.80;62.30;;;;;;5408549;26;20471;-74
2024/04/16 10:26:42;;;;;;;3.27;0.97;;;9.70;62.30;;;;;;5411652;26;20487;-73
2024/04/16 10:29:22;;;;;;;4.13;1.00;;;9.80;62.60;;;;;;5416708;26;20531;-74
2024/04/16 10:31:53;;;;;;;7.00;1.03;;;9.90;62.50;;;;;;5406401;26;20562;-71
2024/04/16 10:34:24;;;;;;;3.27;1.10;;;9.70;62.80;;;;;;5412607;26;20511;-74
2024/04/16 10:36:55;;;;;;;2.50;1.00;;;9.80;63.40;;;;;;5405700;26;20527;-73
2024/04/16 10:39:33;;;;;;;3.67;2.53;;;9.80;63.90;;;;;;5405944;26;20467;-73
2024/04/16 10:42:01;;;;;;;2.40;0.80;;;9.90;64.10;;;;;;5399421;26;20474;-74
2024/04/16 10:44:28;;;;;;;3.03;1.00;;;9.80;63.80;;;;;;5409181;26;20511;-73
2024/04/16 10:46:56;;;;;;;2.80;0.73;;;9.80;64.20;;;;;;5404560;26;20535;-75
2024/04/16 10:49:26;;;;;;;5.10;0.93;;;9.60;64.50;;;;;;5402880;26;20463;-73
2024/04/16 10:51:53;;;;;;;5.83;1.00;;;9.60;64.70;;;;;;5408690;26;20467;-72
2024/04/16 10:54:20;;;;;;;2.60;1.10;;;9.70;64.70;;;;;;5411293;26;21094;-73
2024/04/16 10:56:49;;;;;;;1.20;0.87;;;10.00;64.40;;;;;;5416331;26;20459;-72
2024/04/16 10:59:17;;;;;;;4.13;1.20;;;10.10;63.90;;;;;;5415373;26;20582;-73
2024/04/16 11:01:46;;;;;;;12.17;1.30;;;10.40;64.20;;;;;;5416670;26;20598;-74
2024/04/16 11:04:13;;;;;;;4.73;1.33;;;10.20;63.70;;;;;;5387889;26;20527;-75
2024/04/16 11:06:42;;;;;;;5.40;1.40;;;10.10;63.90;;;;;;5412241;26;20487;-74
2024/04/16 11:09:08;;;;;;;5.00;1.57;;;10.30;64.10;;;;;;5415748;26;20515;-74
2024/04/16 11:11:34;;;;;;;1.80;1.07;;;10.60;63.40;;;;;;5418739;26;20594;-74
2024/04/16 11:14:04;;;;;;;5.20;1.17;;;10.40;62.90;;;;;;5406280;26;20861;-73
2024/04/16 11:16:30;;;;;;;3.33;0.80;;;10.30;62.80;;;;;;5415687;26;20471;-74
2024/04/16 11:18:56;;;;;;;1.53;1.03;;;10.20;62.90;;;;;;5415120;26;20482;-73
2024/04/16 11:21:25;;;;;;;1.33;0.80;;;10.10;63.80;;;;;;5409297;26;20521;-74
2024/04/16 11:23:51;;;;;;;4.47;0.83;;;10.20;63.80;;;;;;5387548;26;20467;-74
2024/04/16 11:26:17;;;;;;;3.37;1.10;;;10.40;64.50;;;;;;5418593;26;20530;-72
2024/04/16 11:28:42;;;;;;;2.50;0.90;;;10.60;66.30;;;;;;5419754;26;20807;-73
2024/04/16 11:31:09;;;;;;;3.43;0.70;;;10.60;65.30;;;;;;5414239;26;20296;-74
2024/04/16 11:33:35;;;;;;;2.00;1.00;;;10.70;65.30;;;;;;5419208;26;20471;-73
2024/04/16 11:36:05;;;;;;;2.90;0.97;;;10.80;64.10;;;;;;5419531;26;20510;-73
2024/04/16 11:38:32;;;;;;;1.23;0.80;;;11.10;63.40;;;;;;5418976;26;20301;-72
2024/04/16 11:40:58;;;;;;;3.00;0.80;;;11.20;62.30;;;;;;5417214;26;20463;-74
2024/04/16 11:43:38;;;;;;;1.77;0.90;;;11.50;62.50;;;;;;5417842;26;20470;-74
2024/04/16 11:46:07;;;;;;;2.63;1.07;;;11.40;61.00;;;;;;5408755;26;20241;-73
2024/04/16 11:48:33;;;;;;;2.37;1.03;;;11.60;61.20;;;;;;5417217;26;20463;-75
2024/04/16 11:50:59;;;;;;;1.33;0.90;;;11.40;59.50;;;;;;5415060;26;20893;-72
2024/04/16 11:53:24;;;;;;;1.90;0.83;;;11.20;60.10;;;;;;5416111;26;20451;-74
2024/04/16 11:55:50;;;;;;;5.00;1.17;;;11.40;60.00;;;;;;5414778;26;20257;-73
2024/04/16 11:58:17;;;;;;;6.07;1.23;;;11.00;60.30;;;;;;5419207;26;20302;-72
2024/04/16 12:00:43;;;;;;;2.57;1.00;;;11.20;60.90;;;;;;5417012;26;20233;-73
2024/04/16 12:03:08;;;;;;;2.00;0.77;;;10.60;64.20;;;;;;5413044;26;20875;-73
2024/04/16 12:05:34;;;;;;;3.37;1.03;;;10.20;66.00;;;;;;5421843;26;20245;-75
2024/04/16 12:08:00;;;;;;;3.23;0.93;;;10.10;66.00;;;;;;5419918;26;20233;-73
2024/04/16 12:10:29;;;;;;;4.93;0.70;;;10.20;65.80;;;;;;5417577;26;20784;-73
2024/04/16 12:12:55;;;;;;;2.57;0.90;;;10.60;64.40;;;;;;5426080;26;20623;-72
2024/04/16 12:15:22;;;;;;;2.50;1.00;;;10.80;64.50;;;;;;5426035;26;20471;-72
2024/04/16 12:17:48;;;;;;;10.90;1.40;;;11.00;63.90;;;;;;5425887;26;21086;-73
2024/04/16 12:20:13;;;;;;;6.30;1.10;;;10.80;63.40;;;;;;5406292;26;20469;-72
2024/04/16 12:22:39;;;;;;;6.20;1.20;;;10.70;63.90;;;;;;5403127;26;20245;-74
2024/04/16 12:25:04;;;;;;;2.10;1.00;;;10.60;64.10;;;;;;5412646;26;20233;-74
2024/04/16 12:27:30;;;;;;;2.70;0.97;;;10.40;63.80;;;;;;5412381;26;20249;-72
2024/04/16 12:29:56;;;;;;;2.70;0.90;;;10.50;63.80;;;;;;5410216;26;20241;-74
2024/04/16 12:32:22;;;;;;;1.70;0.93;;;10.80;63.20;;;;;;5410577;26;20562;-74
2024/04/16 12:34:47;;;;;;;2.50;0.70;;;10.70;62.30;;;;;;5412544;26;20338;-74
2024/04/16 12:37:13;;;;;;;2.47;1.00;;;10.60;62.30;;;;;;5406913;26;20776;-71
2024/04/16 12:39:38;;;;;;;2.47;1.00;;;10.70;62.50;;;;;;5412473;26;20300;-73
2024/04/16 12:42:04;;;;;;;8.10;1.10;;;11.10;61.90;;;;;;5410999;26;20245;-73
2024/04/16 12:44:30;;;;;;;2.70;0.80;;;11.80;60.30;;;;;;5413475;26;20276;-73
2024/04/16 12:46:55;;;;;;;1.77;0.70;;;12.30;58.50;;;;;;5413607;26;20276;-72
2024/04/16 12:49:24;;;;;;;1.57;0.80;;;12.30;58.40;;;;;;5419761;26;20331;-73
2024/04/16 12:51:51;;;;;;;4.13;1.70;;;12.00;58.20;;;;;;5423329;26;20319;-73
2024/04/16 12:54:20;;;;;;;1.87;1.00;;;11.90;59.30;;;;;;5424109;26;20870;-74